createdAt,value
2018-08-24T00:01:25.471Z,31.98
2018-08-24T00:03:56.140Z,32.49
2018-08-24T00:06:26.752Z,32.36
2018-08-24T00:08:57.509Z,32.42
2018-08-24T00:11:28.220Z,32.37
2018-08-24T00:13:58.853Z,32.45
2018-08-24T00:16:34.461Z,32.46
2018-08-24T00:19:05.206Z,31.56
2018-08-24T00:21:36.014Z,31.30
2018-08-24T00:24:07.121Z,31.49
2018-08-24T00:26:37.936Z,31.49
2018-08-24T00:29:08.904Z,31.38
2018-08-24T00:31:40.212Z,31.61
2018-08-24T00:34:10.565Z,31.72
2018-08-24T00:36:41.286Z,31.71
2018-08-24T00:39:11.945Z,31.67
2018-08-24T00:41:42.795Z,31.70
2018-08-24T00:44:13.405Z,31.79
2018-08-24T00:46:45.005Z,31.65
2018-08-24T00:49:15.736Z,31.38
2018-08-24T00:51:46.601Z,30.57
2018-08-24T00:54:17.240Z,30.72
2018-08-24T00:56:48.402Z,30.88
2018-08-24T00:59:18.912Z,30.64
2018-08-24T01:01:49.749Z,30.36
2018-08-24T01:04:25.442Z,30.33
2018-08-24T01:06:56.385Z,31.12
2018-08-24T01:09:26.861Z,31.32
2018-08-24T01:12:02.750Z,31.26
2018-08-24T01:14:33.233Z,30.93
2018-08-24T01:17:08.915Z,30.80
2018-08-24T01:19:39.581Z,30.42
2018-08-24T01:22:10.168Z,29.97
2018-08-24T01:24:40.889Z,29.74
2018-08-24T01:27:11.881Z,30.31
2018-08-24T01:29:43.398Z,30.02
2018-08-24T01:32:15.173Z,29.44
2018-08-24T01:34:45.728Z,29.90
2018-08-24T01:37:16.712Z,30.06
2018-08-24T01:39:47.273Z,30.33
2018-08-24T01:42:18.288Z,30.40
2018-08-24T01:44:48.788Z,30.04
2018-08-24T01:47:19.457Z,30.26
2018-08-24T01:49:50.037Z,30.14
2018-08-24T01:52:20.836Z,29.95
2018-08-24T01:54:51.397Z,29.84
2018-08-24T01:57:22.260Z,30.00
2018-08-24T01:59:52.892Z,29.71
2018-08-24T02:02:23.709Z,30.17
2018-08-24T02:04:54.429Z,29.35
2018-08-24T02:07:25.340Z,28.98
2018-08-24T02:09:56.062Z,29.39
2018-08-24T02:12:31.593Z,28.77
2018-08-24T02:15:02.173Z,28.31
2018-08-24T02:17:37.773Z,27.46
2018-08-24T02:20:13.286Z,28.62
2018-08-24T02:22:44.174Z,28.37
2018-08-24T02:25:14.564Z,28.23
2018-08-24T02:27:45.301Z,28.30
2018-08-24T02:30:15.888Z,29.13
2018-08-24T02:32:46.720Z,28.17
2018-08-24T02:35:19.197Z,27.49
2018-08-24T02:37:51.852Z,27.90
2018-08-24T02:40:22.439Z,28.46
2018-08-24T02:42:53.641Z,27.68
2018-08-24T02:45:24.274Z,27.95
2018-08-24T02:47:55.070Z,27.84
2018-08-24T02:50:25.665Z,27.50
2018-08-24T02:52:56.501Z,27.85
2018-08-24T02:55:27.294Z,27.78
2018-08-24T02:57:57.824Z,27.67
2018-08-24T03:00:28.393Z,27.37
2018-08-24T03:02:59.236Z,27.39
2018-08-24T03:05:29.919Z,27.61
2018-08-24T03:08:00.629Z,27.33
2018-08-24T03:10:31.240Z,27.66
2018-08-24T03:13:01.917Z,28.04
2018-08-24T03:15:32.310Z,27.78
2018-08-24T03:18:03.185Z,28.02
2018-08-24T03:20:33.765Z,28.42
2018-08-24T03:23:04.328Z,28.21
2018-08-24T03:25:34.946Z,28.62
2018-08-24T03:28:05.824Z,28.17
2018-08-24T03:30:36.478Z,27.85
2018-08-24T03:33:07.414Z,28.38
2018-08-24T03:35:38.032Z,27.79
2018-08-24T03:38:08.844Z,27.93
2018-08-24T03:40:39.422Z,27.95
2018-08-24T03:43:10.628Z,28.34
2018-08-24T03:45:41.298Z,28.71
2018-08-24T03:48:12.323Z,28.60
2018-08-24T03:50:42.857Z,28.36
2018-08-24T03:53:13.663Z,28.54
2018-08-24T03:55:44.361Z,28.48
2018-08-24T03:58:15.265Z,28.33
2018-08-24T04:00:45.896Z,28.70
2018-08-24T04:03:16.872Z,28.94
2018-08-24T04:05:47.529Z,28.97
2018-08-24T04:08:18.061Z,29.67
2018-08-24T04:10:48.608Z,29.30
2018-08-24T04:13:19.444Z,28.74
2018-08-24T04:15:50.088Z,28.66
2018-08-24T04:18:20.909Z,29.06
2018-08-24T04:20:51.569Z,29.07
2018-08-24T04:23:22.385Z,29.36
2018-08-24T04:25:53.145Z,28.93
2018-08-24T04:28:23.802Z,29.37
2018-08-24T04:30:54.376Z,29.50
2018-08-24T04:33:25.053Z,29.17
2018-08-24T04:35:55.625Z,29.39
2018-08-24T04:38:26.793Z,30.41
2018-08-24T04:40:57.413Z,30.36
2018-08-24T04:43:27.981Z,29.70
2018-08-24T04:45:58.693Z,29.56
2018-08-24T04:48:29.731Z,30.68
2018-08-24T04:51:00.201Z,31.46
2018-08-24T04:53:31.081Z,32.22
2018-08-24T04:56:01.792Z,32.03
2018-08-24T04:58:32.729Z,31.55
2018-08-24T05:01:03.216Z,31.76
2018-08-24T05:03:33.944Z,31.07
2018-08-24T05:06:04.461Z,30.67
2018-08-24T05:08:35.153Z,31.49
2018-08-24T05:11:05.881Z,32.38
2018-08-24T05:13:36.524Z,33.60
2018-08-24T05:16:07.237Z,33.68
2018-08-24T05:18:37.985Z,32.92
2018-08-24T05:21:08.734Z,33.50
2018-08-24T05:23:39.536Z,33.72
2018-08-24T05:26:10.283Z,33.74
2018-08-24T05:28:41.261Z,33.31
2018-08-24T05:31:11.946Z,32.92
2018-08-24T05:33:42.628Z,33.32
2018-08-24T05:36:13.321Z,32.37
2018-08-24T05:38:44.113Z,31.98
2018-08-24T05:41:14.786Z,32.85
2018-08-24T05:43:45.580Z,33.00
2018-08-24T05:46:16.249Z,33.46
2018-08-24T05:48:46.847Z,33.97
2018-08-24T05:51:17.461Z,34.09
2018-08-24T05:53:48.268Z,34.04
2018-08-24T05:56:18.483Z,33.81
2018-08-24T05:58:48.828Z,34.12
2018-08-24T06:01:19.101Z,34.14
2018-08-24T06:03:49.578Z,34.14
2018-08-24T06:06:19.873Z,34.13
2018-08-24T06:08:55.196Z,33.82
2018-08-24T06:11:25.662Z,34.25
2018-08-24T06:13:56.324Z,35.06
2018-08-24T06:16:26.952Z,36.15
2018-08-24T06:18:57.819Z,35.21
2018-08-24T06:21:28.458Z,35.90
2018-08-24T06:23:59.176Z,35.92
2018-08-24T06:26:29.813Z,36.16
2018-08-24T06:29:00.498Z,36.48
2018-08-24T06:31:31.249Z,36.61
2018-08-24T06:34:02.133Z,36.76
2018-08-24T06:36:32.701Z,36.02
2018-08-24T06:39:03.709Z,37.26
2018-08-24T06:41:34.408Z,37.54
2018-08-24T06:44:05.326Z,37.76
2018-08-24T06:46:35.936Z,36.97
2018-08-24T06:49:06.813Z,36.50
2018-08-24T06:51:37.404Z,36.39
2018-08-24T06:54:08.504Z,37.24
2018-08-24T06:56:38.880Z,37.29
2018-08-24T06:59:09.875Z,36.44
2018-08-24T07:01:40.610Z,36.90
2018-08-24T07:04:11.549Z,37.18
2018-08-24T07:06:42.144Z,38.31
2018-08-24T07:09:13.305Z,37.80
2018-08-24T07:11:43.893Z,36.61
2018-08-24T07:14:14.689Z,38.15
2018-08-24T07:16:45.375Z,37.68
2018-08-24T07:19:16.193Z,37.16
2018-08-24T07:21:46.825Z,37.47
2018-08-24T07:24:17.533Z,37.67
2018-08-24T07:26:48.206Z,37.86
2018-08-24T07:29:19.251Z,38.28
2018-08-24T07:31:49.881Z,37.98
2018-08-24T07:34:21.109Z,39.02
2018-08-24T07:36:51.977Z,38.14
2018-08-24T07:39:22.700Z,38.20
2018-08-24T07:41:53.355Z,38.46
2018-08-24T07:44:24.238Z,37.81
2018-08-24T07:46:54.841Z,38.80
2018-08-24T07:49:26.126Z,38.98
2018-08-24T07:51:56.608Z,38.59
2018-08-24T07:54:27.205Z,40.06
2018-08-24T07:56:57.836Z,40.38
2018-08-24T07:59:29.796Z,39.58
2018-08-24T08:02:00.453Z,40.15
2018-08-24T08:04:31.301Z,40.11
2018-08-24T08:07:02.097Z,40.14
2018-08-24T08:09:33.042Z,39.65
2018-08-24T08:12:03.724Z,40.54
2018-08-24T08:14:34.509Z,40.49
2018-08-24T08:17:05.181Z,39.92
2018-08-24T08:19:35.870Z,40.68
2018-08-24T08:22:06.580Z,41.22
2018-08-24T08:24:37.407Z,41.57
2018-08-24T08:27:08.104Z,39.67
2018-08-24T08:29:43.865Z,39.74
2018-08-24T08:32:14.529Z,39.89
2018-08-24T08:34:51.242Z,40.39
2018-08-24T08:37:23.297Z,40.21
2018-08-24T08:39:57.964Z,39.31
2018-08-24T08:42:28.800Z,40.06
2018-08-24T08:45:00.289Z,40.08
2018-08-24T08:47:30.908Z,40.02
2018-08-24T08:50:01.824Z,40.07
2018-08-24T08:52:32.481Z,40.44
2018-08-24T08:55:03.541Z,40.30
2018-08-24T08:57:34.136Z,40.63
2018-08-24T09:00:04.969Z,41.68
2018-08-24T09:02:35.727Z,41.24
2018-08-24T09:05:06.604Z,42.10
2018-08-24T09:07:37.356Z,40.57
2018-08-24T09:10:07.993Z,42.46
2018-08-24T09:12:38.821Z,41.58
2018-08-24T09:15:09.854Z,42.42
2018-08-24T09:17:45.580Z,42.42
2018-08-24T09:20:21.252Z,41.97
2018-08-24T09:22:56.654Z,41.31
2018-08-24T09:25:32.172Z,40.58
2018-08-24T09:28:07.930Z,40.78
2018-08-24T09:30:42.172Z,40.15
2018-08-24T09:33:12.796Z,39.93
2018-08-24T09:35:43.714Z,40.72
2018-08-24T09:38:14.406Z,40.83
2018-08-24T09:40:50.299Z,40.17
2018-08-24T09:43:25.708Z,42.61
2018-08-24T09:45:56.314Z,42.26
2018-08-24T09:48:28.679Z,41.47
2018-08-24T09:51:04.506Z,41.00
2018-08-24T09:53:40.193Z,40.95
2018-08-24T09:56:11.142Z,40.67
2018-08-24T09:58:41.568Z,40.93
2018-08-24T10:02:18.829Z,41.90
2018-08-24T10:04:54.260Z,42.62
2018-08-24T10:07:28.656Z,42.56
2018-08-24T10:09:59.756Z,41.99
2018-08-24T10:12:34.653Z,43.22
2018-08-24T10:15:06.597Z,43.23
2018-08-24T10:17:37.541Z,43.43
2018-08-24T10:20:08.776Z,43.36
2018-08-24T10:22:39.582Z,42.31
2018-08-24T10:25:10.236Z,42.54
2018-08-24T10:27:41.174Z,43.38
2018-08-24T10:30:11.908Z,44.18
2018-08-24T10:32:42.890Z,42.79
2018-08-24T10:35:13.525Z,43.30
2018-08-24T10:37:44.358Z,43.22
2018-08-24T10:40:15.044Z,43.05
2018-08-24T10:42:45.614Z,43.44
2018-08-24T10:45:16.282Z,42.85
2018-08-24T10:47:47.376Z,43.25
2018-08-24T10:50:17.957Z,42.31
2018-08-24T10:52:48.677Z,43.53
2018-08-24T10:55:19.327Z,44.19
2018-08-24T10:57:50.242Z,44.13
2018-08-24T11:00:20.909Z,43.19
2018-08-24T11:02:51.854Z,43.98
2018-08-24T11:05:22.595Z,43.31
2018-08-24T11:07:53.354Z,42.96
2018-08-24T11:10:23.907Z,42.44
2018-08-24T11:12:54.717Z,42.06
2018-08-24T11:15:26.474Z,41.36
2018-08-24T11:18:04.521Z,40.81
2018-08-24T11:20:35.237Z,41.22
2018-08-24T11:23:07.086Z,41.79
2018-08-24T11:25:39.790Z,41.64
2018-08-24T11:28:11.765Z,42.53
2018-08-24T11:30:42.525Z,42.84
2018-08-24T11:33:13.290Z,42.38
2018-08-24T11:35:45.002Z,42.38
2018-08-24T11:38:16.034Z,43.80
2018-08-24T11:40:46.613Z,43.94
2018-08-24T11:43:17.472Z,42.64
2018-08-24T11:45:48.143Z,43.69
2018-08-24T11:48:19.340Z,43.71
2018-08-24T11:50:49.966Z,43.12
2018-08-24T11:53:20.910Z,43.28
2018-08-24T11:55:51.516Z,43.21
2018-08-24T11:58:22.496Z,43.46
2018-08-24T12:00:53.225Z,43.34
2018-08-24T12:03:24.216Z,44.07
2018-08-24T12:05:55.002Z,44.10
2018-08-24T12:08:26.024Z,43.17
2018-08-24T12:10:56.629Z,43.11
2018-08-24T12:13:27.225Z,42.85
2018-08-24T12:15:58.065Z,44.06
2018-08-24T12:18:29.146Z,44.60
2018-08-24T12:20:59.775Z,45.12
2018-08-24T12:23:30.661Z,45.22
2018-08-24T12:26:01.249Z,45.67
2018-08-24T12:28:32.117Z,43.70
2018-08-24T12:31:02.833Z,44.26
2018-08-24T12:33:33.537Z,44.42
2018-08-24T12:36:04.236Z,43.47
2018-08-24T12:38:35.041Z,43.76
2018-08-24T12:41:05.632Z,43.41
2018-08-24T12:43:38.283Z,43.40
2018-08-24T12:46:12.486Z,44.40
2018-08-24T12:48:44.047Z,43.11
2018-08-24T12:51:14.639Z,42.07
2018-08-24T12:53:45.814Z,43.38
2018-08-24T12:56:19.567Z,43.12
2018-08-24T12:58:51.542Z,43.53
2018-08-24T13:01:22.365Z,43.51
2018-08-24T13:03:53.413Z,44.53
2018-08-24T13:06:24.035Z,44.27
2018-08-24T13:08:55.125Z,44.48
2018-08-24T13:11:25.746Z,42.95
2018-08-24T13:13:56.634Z,44.12
2018-08-24T13:16:27.261Z,44.01
2018-08-24T13:18:57.913Z,43.68
2018-08-24T13:21:28.685Z,42.82
2018-08-24T13:23:59.571Z,43.59
2018-08-24T13:26:30.120Z,43.82
2018-08-24T13:29:00.968Z,42.75
2018-08-24T13:31:31.665Z,43.37
2018-08-24T13:34:02.601Z,44.51
2018-08-24T13:36:33.314Z,43.47
2018-08-24T13:39:04.979Z,43.93
2018-08-24T13:41:35.456Z,43.88
2018-08-24T13:44:06.354Z,42.40
2018-08-24T13:46:37.201Z,42.52
2018-08-24T13:49:08.456Z,44.01
2018-08-24T13:51:39.248Z,42.33
2018-08-24T13:54:10.433Z,42.47
2018-08-24T13:56:41.051Z,42.12
2018-08-24T13:59:11.765Z,41.80
2018-08-24T14:01:42.415Z,41.42
2018-08-24T14:04:13.221Z,43.06
2018-08-24T14:06:43.894Z,42.27
2018-08-24T14:09:14.457Z,42.12
2018-08-24T14:11:45.152Z,42.12
2018-08-24T14:14:16.141Z,41.82
2018-08-24T14:16:46.734Z,42.88
2018-08-24T14:19:17.578Z,42.36
2018-08-24T14:21:48.266Z,41.61
2018-08-24T14:24:18.961Z,42.48
2018-08-24T14:26:49.594Z,43.22
2018-08-24T14:29:20.515Z,42.02
2018-08-24T14:31:51.131Z,42.34
2018-08-24T14:34:21.809Z,43.49
2018-08-24T14:36:52.420Z,43.14
2018-08-24T14:39:23.174Z,43.90
2018-08-24T14:41:53.844Z,43.44
2018-08-24T14:44:24.599Z,43.61
2018-08-24T14:46:55.249Z,43.65
2018-08-24T14:49:26.404Z,44.31
2018-08-24T14:51:56.885Z,43.00
2018-08-24T14:54:27.708Z,42.40
2018-08-24T14:56:58.386Z,43.66
2018-08-24T14:59:29.309Z,43.00
2018-08-24T15:01:59.941Z,43.48
2018-08-24T15:04:30.823Z,43.30
2018-08-24T15:07:01.559Z,41.57
2018-08-24T15:09:32.297Z,42.38
2018-08-24T15:12:03.282Z,43.69
2018-08-24T15:14:34.269Z,43.27
2018-08-24T15:17:05.047Z,42.45
2018-08-24T15:19:35.745Z,42.70
2018-08-24T15:22:06.545Z,42.79
2018-08-24T15:24:37.271Z,41.61
2018-08-24T15:27:07.930Z,41.33
2018-08-24T15:29:38.661Z,42.00
2018-08-24T15:32:09.249Z,41.91
2018-08-24T15:34:40.045Z,42.82
2018-08-24T15:37:10.632Z,42.54
2018-08-24T15:39:41.433Z,42.84
2018-08-24T15:42:11.993Z,43.24
2018-08-24T15:44:42.980Z,42.86
2018-08-24T15:47:13.925Z,40.85
2018-08-24T15:49:44.769Z,42.16
2018-08-24T15:52:15.465Z,42.20
2018-08-24T15:54:46.396Z,41.11
2018-08-24T15:57:17.026Z,41.86
2018-08-24T15:59:47.749Z,41.94
2018-08-24T16:02:18.226Z,41.94
2018-08-24T16:04:49.021Z,41.93
2018-08-24T16:07:19.676Z,41.09
2018-08-24T16:09:50.362Z,41.35
2018-08-24T16:12:21.126Z,41.43
2018-08-24T16:14:52.154Z,40.39
2018-08-24T16:17:22.782Z,40.63
2018-08-24T16:19:53.525Z,40.51
2018-08-24T16:22:24.364Z,40.55
2018-08-24T16:24:55.339Z,39.67
2018-08-24T16:27:26.447Z,39.81
2018-08-24T16:29:58.404Z,39.64
2018-08-24T16:32:29.147Z,39.93
2018-08-24T16:35:00.105Z,39.63
2018-08-24T16:37:30.813Z,39.77
2018-08-24T16:40:01.613Z,39.64
2018-08-24T16:42:32.102Z,40.06
2018-08-24T16:45:03.238Z,39.84
2018-08-24T16:47:33.933Z,39.59
2018-08-24T16:50:04.742Z,39.75
2018-08-24T16:52:35.494Z,39.82
2018-08-24T16:55:06.302Z,39.73
2018-08-24T16:57:36.892Z,39.52
2018-08-24T17:00:09.030Z,38.43
2018-08-24T17:02:39.648Z,37.35
2018-08-24T17:05:10.282Z,37.35
2018-08-24T17:07:40.764Z,38.17
2018-08-24T17:10:11.466Z,37.68
2018-08-24T17:12:42.223Z,38.04
2018-08-24T17:15:13.132Z,37.87
2018-08-24T17:17:43.745Z,37.85
2018-08-24T17:20:14.476Z,37.92
2018-08-24T17:22:45.094Z,38.25
2018-08-24T17:25:15.764Z,38.06
2018-08-24T17:27:46.381Z,38.38
2018-08-24T17:30:17.394Z,37.96
2018-08-24T17:32:47.986Z,37.91
2018-08-24T17:35:18.961Z,37.27
2018-08-24T17:37:49.537Z,37.67
2018-08-24T17:40:20.205Z,37.76
2018-08-24T17:42:51.019Z,37.73
2018-08-24T17:45:22.091Z,37.60
2018-08-24T17:47:52.891Z,37.28
2018-08-24T17:50:24.011Z,37.59
2018-08-24T17:52:54.625Z,37.87
2018-08-24T17:55:25.529Z,37.85
2018-08-24T17:57:56.156Z,38.05
2018-08-24T18:00:26.981Z,37.84
2018-08-24T18:02:57.609Z,37.82
2018-08-24T18:05:28.427Z,37.36
2018-08-24T18:07:59.179Z,37.13
2018-08-24T18:10:30.168Z,36.99
2018-08-24T18:13:00.757Z,37.10
2018-08-24T18:15:31.892Z,37.15
2018-08-24T18:18:02.488Z,37.18
2018-08-24T18:20:33.263Z,36.73
2018-08-24T18:23:03.914Z,36.29
2018-08-24T18:25:34.776Z,35.94
2018-08-24T18:28:06.111Z,35.89
2018-08-24T18:30:37.052Z,36.17
2018-08-24T18:33:08.069Z,35.54
2018-08-24T18:35:39.040Z,35.85
2018-08-24T18:38:09.801Z,35.72
2018-08-24T18:40:40.804Z,35.44
2018-08-24T18:43:11.705Z,36.16
2018-08-24T18:45:42.562Z,36.19
2018-08-24T18:48:13.383Z,36.17
2018-08-24T18:50:44.384Z,36.17
2018-08-24T18:53:15.080Z,36.08
2018-08-24T18:55:45.885Z,36.20
2018-08-24T18:58:16.603Z,36.19
2018-08-24T19:00:47.634Z,35.56
2018-08-24T19:03:18.480Z,35.54
2018-08-24T19:05:49.550Z,35.74
2018-08-24T19:08:20.740Z,35.81
2018-08-24T19:10:56.869Z,35.32
2018-08-24T19:13:28.106Z,34.21
2018-08-24T19:15:59.358Z,34.37
2018-08-24T19:18:35.332Z,35.35
2018-08-24T19:21:12.089Z,34.75
2018-08-24T19:23:44.063Z,34.96
2018-08-24T19:26:15.152Z,35.37
2018-08-24T19:28:51.207Z,35.21
2018-08-24T19:31:22.363Z,34.81
2018-08-24T19:33:53.201Z,34.33
2018-08-24T19:36:24.176Z,34.46
2018-08-24T19:38:55.004Z,34.22
2018-08-24T19:41:31.134Z,34.64
2018-08-24T19:44:02.170Z,34.79
2018-08-24T19:46:33.248Z,34.51
2018-08-24T19:49:21.703Z,34.28
2018-08-24T19:51:52.913Z,34.27
2018-08-24T19:54:23.728Z,33.93
2018-08-24T19:56:54.871Z,33.80
2018-08-24T19:59:26.007Z,33.56
2018-08-24T20:01:57.243Z,33.92
2018-08-24T20:04:27.950Z,34.04
2018-08-24T20:07:03.845Z,34.02
2018-08-24T20:09:39.744Z,33.92
2018-08-24T20:12:12.133Z,33.84
2018-08-24T20:14:49.960Z,34.05
2018-08-24T20:17:37.821Z,34.19
2018-08-24T20:20:09.074Z,34.34
2018-08-24T20:22:40.299Z,34.22
2018-08-24T20:25:11.327Z,33.85
2018-08-24T20:27:43.037Z,33.73
2018-08-24T20:30:13.843Z,33.98
2018-08-24T20:32:45.068Z,33.71
2018-08-24T20:35:16.100Z,33.77
2018-08-24T20:37:47.425Z,33.93
2018-08-24T20:40:18.404Z,33.73
2018-08-24T20:42:49.523Z,33.64
2018-08-24T20:45:20.085Z,34.20
2018-08-24T20:47:51.187Z,33.79
2018-08-24T20:50:22.036Z,33.51
2018-08-24T20:52:52.798Z,33.78
2018-08-24T20:55:23.324Z,33.18
2018-08-24T20:57:54.729Z,33.33
2018-08-24T21:00:25.590Z,33.04
2018-08-24T21:02:56.666Z,33.38
2018-08-24T21:05:27.471Z,33.62
2018-08-24T21:08:02.035Z,33.61
2018-08-24T21:10:32.931Z,33.50
2018-08-24T21:13:04.008Z,33.28
2018-08-24T21:15:34.899Z,33.66
2018-08-24T21:18:05.798Z,33.41
2018-08-24T21:20:36.599Z,33.72
2018-08-24T21:23:07.875Z,33.70
2018-08-24T21:25:38.743Z,33.47
2018-08-24T21:28:09.736Z,33.77
2018-08-24T21:30:40.636Z,33.97
2018-08-24T21:33:11.661Z,33.86
2018-08-24T21:35:42.500Z,33.41
2018-08-24T21:38:13.703Z,33.61
2018-08-24T21:40:44.542Z,33.66
2018-08-24T21:43:15.671Z,33.80
2018-08-24T21:45:46.642Z,33.80
2018-08-24T21:48:17.902Z,33.76
2018-08-24T21:50:49.231Z,33.68
2018-08-24T21:53:20.460Z,33.88
2018-08-24T21:55:51.346Z,34.15
2018-08-24T21:58:22.323Z,33.50
2018-08-24T22:00:53.157Z,33.73
2018-08-24T22:03:24.198Z,34.31
2018-08-24T22:05:54.902Z,33.68
2018-08-24T22:08:26.029Z,33.81
2018-08-24T22:10:57.027Z,33.51
2018-08-24T22:13:28.226Z,33.77
2018-08-24T22:15:59.059Z,33.84
2018-08-24T22:18:29.984Z,33.34
2018-08-24T22:21:00.763Z,33.65
2018-08-24T22:23:31.746Z,33.72
2018-08-24T22:26:02.797Z,33.59
2018-08-24T22:28:34.021Z,33.17
2018-08-24T22:31:04.746Z,33.67
2018-08-24T22:33:35.336Z,33.40
2018-08-24T22:36:05.942Z,33.68
2018-08-24T22:38:37.084Z,34.06
2018-08-24T22:41:07.831Z,33.91
2018-08-24T22:43:40.181Z,34.03
2018-08-24T22:46:10.656Z,33.63
2018-08-24T22:48:41.343Z,33.89
2018-08-24T22:51:11.921Z,33.15
2018-08-24T22:53:42.904Z,32.88
2018-08-24T22:56:13.456Z,33.13
2018-08-24T22:58:44.289Z,32.82
2018-08-24T23:01:14.730Z,32.93
2018-08-24T23:03:45.719Z,32.83
2018-08-24T23:06:16.288Z,33.03
2018-08-24T23:08:47.039Z,33.12
2018-08-24T23:11:17.498Z,33.08
2018-08-24T23:13:48.360Z,33.48
2018-08-24T23:16:18.836Z,33.39
2018-08-24T23:18:49.600Z,33.28
2018-08-24T23:21:20.205Z,33.45
2018-08-24T23:23:50.800Z,33.38
2018-08-24T23:26:21.351Z,33.41
2018-08-24T23:28:52.349Z,33.54
2018-08-24T23:31:22.929Z,33.06
2018-08-24T23:33:53.538Z,33.26
2018-08-24T23:36:24.167Z,33.51
2018-08-24T23:38:54.956Z,33.73
2018-08-24T23:41:44.064Z,33.48
2018-08-24T23:44:14.870Z,33.59
2018-08-24T23:46:45.496Z,33.54
2018-08-24T23:49:16.261Z,33.45
2018-08-24T23:51:46.801Z,33.34
2018-08-24T23:54:17.632Z,33.08
2018-08-24T23:56:48.311Z,32.67
2018-08-24T23:59:18.985Z,31.95
